createdAt,value
2023-04-09T00:02:04.650Z,1.40
2023-04-09T00:04:31.639Z,1.38
2023-04-09T00:06:58.540Z,1.33
2023-04-09T00:09:25.477Z,1.40
2023-04-09T00:11:52.431Z,2.53
2023-04-09T00:14:19.294Z,1.30
2023-04-09T00:16:46.258Z,1.38
2023-04-09T00:19:13.426Z,1.38
2023-04-09T00:21:40.388Z,1.08
2023-04-09T00:24:07.278Z,1.67
2023-04-09T00:26:34.474Z,1.70
2023-04-09T00:29:01.524Z,1.52
2023-04-09T00:31:28.472Z,1.50
2023-04-09T00:33:55.464Z,1.55
2023-04-09T00:36:22.772Z,1.67
2023-04-09T00:38:51.609Z,3.75
2023-04-09T00:41:18.710Z,4.43
2023-04-09T00:43:45.662Z,1.70
2023-04-09T00:46:12.695Z,1.60
2023-04-09T00:48:40.498Z,1.55
2023-04-09T00:51:08.348Z,1.83
2023-04-09T00:53:35.625Z,2.10
2023-04-09T00:56:03.557Z,1.92
2023-04-09T00:58:30.491Z,2.28
2023-04-09T01:00:57.412Z,1.60
2023-04-09T01:03:24.539Z,1.65
2023-04-09T01:06:10.767Z,2.45
2023-04-09T01:08:56.573Z,2.05
2023-04-09T01:11:59.239Z,1.48
2023-04-09T01:14:51.784Z,1.90
2023-04-09T01:17:33.780Z,3.38
2023-04-09T01:20:10.510Z,1.27
2023-04-09T01:23:16.463Z,1.30
2023-04-09T01:25:52.110Z,1.65
2023-04-09T01:28:39.456Z,1.55
2023-04-09T01:31:15.694Z,1.45
2023-04-09T01:36:10.663Z,1.92
2023-04-09T01:38:41.343Z,2.90
2023-04-09T01:41:11.624Z,3.10
2023-04-09T01:43:39.061Z,2.20
2023-04-09T01:46:05.993Z,1.67
2023-04-09T01:48:34.204Z,1.90
2023-04-09T01:51:01.461Z,1.70
2023-04-09T01:53:28.566Z,1.38
2023-04-09T01:55:58.625Z,2.00
2023-04-09T01:58:26.230Z,1.83
2023-04-09T02:00:59.866Z,2.65
2023-04-09T02:03:49.133Z,1.38
2023-04-09T02:06:41.852Z,1.95
2023-04-09T02:09:10.065Z,1.50
2023-04-09T02:11:42.532Z,3.47
2023-04-09T02:14:11.967Z,2.00
2023-04-09T02:16:40.455Z,1.60
2023-04-09T02:19:07.339Z,1.30
2023-04-09T02:21:34.288Z,1.70
2023-04-09T02:24:01.162Z,1.88
2023-04-09T02:26:28.059Z,1.73
2023-04-09T02:28:55.062Z,1.90
2023-04-09T02:31:21.985Z,1.90
2023-04-09T02:33:48.862Z,1.75
2023-04-09T02:36:15.889Z,2.45
2023-04-09T02:38:42.968Z,1.75
2023-04-09T02:41:10.560Z,2.00
2023-04-09T02:43:37.648Z,2.33
2023-04-09T02:46:05.105Z,1.83
2023-04-09T02:48:31.976Z,1.95
2023-04-09T02:50:58.926Z,3.33
2023-04-09T02:53:26.007Z,2.63
2023-04-09T02:55:52.905Z,1.85
2023-04-09T02:58:19.818Z,2.80
2023-04-09T03:00:46.677Z,2.40
2023-04-09T03:03:14.055Z,2.28
2023-04-09T03:05:41.108Z,2.55
2023-04-09T03:08:07.976Z,3.38
2023-04-09T03:10:34.897Z,2.63
2023-04-09T03:13:01.772Z,2.95
2023-04-09T03:15:28.642Z,2.90
2023-04-09T03:17:55.642Z,2.50
2023-04-09T03:20:22.636Z,3.47
2023-04-09T03:22:49.720Z,3.28
2023-04-09T03:25:19.462Z,3.08
2023-04-09T03:27:46.572Z,2.92
2023-04-09T03:30:13.443Z,3.72
2023-04-09T03:32:40.354Z,4.15
2023-04-09T03:35:07.716Z,3.88
2023-04-09T03:37:34.578Z,3.78
2023-04-09T03:40:01.574Z,3.22
2023-04-09T03:42:28.919Z,3.47
2023-04-09T03:44:55.790Z,3.55
2023-04-09T03:47:22.742Z,4.80
2023-04-09T03:49:49.618Z,3.67
2023-04-09T03:52:16.462Z,3.95
2023-04-09T03:54:43.605Z,4.68
2023-04-09T03:57:10.608Z,6.95
2023-04-09T03:59:37.541Z,4.35
2023-04-09T04:02:04.452Z,4.90
2023-04-09T04:04:31.454Z,6.07
2023-04-09T04:06:58.538Z,8.82
2023-04-09T04:09:25.572Z,4.90
2023-04-09T04:11:52.955Z,7.00
2023-04-09T04:14:19.804Z,5.78
2023-04-09T04:16:46.874Z,4.43
2023-04-09T04:19:13.857Z,8.45
2023-04-09T04:21:40.890Z,5.90
2023-04-09T04:24:07.765Z,5.72
2023-04-09T04:26:34.681Z,8.55
2023-04-09T04:29:01.541Z,8.07
2023-04-09T04:31:28.460Z,5.90
2023-04-09T04:33:55.486Z,5.75
2023-04-09T04:36:22.341Z,6.85
2023-04-09T04:38:49.230Z,7.75
2023-04-09T04:41:16.155Z,10.18
2023-04-09T04:43:42.986Z,6.05
2023-04-09T04:46:09.887Z,5.75
2023-04-09T04:48:36.777Z,9.07
2023-04-09T04:51:03.804Z,5.10
2023-04-09T04:53:30.958Z,6.38
2023-04-09T04:55:57.857Z,5.10
2023-04-09T04:58:25.988Z,10.30
2023-04-09T05:00:53.034Z,7.07
2023-04-09T05:03:20.012Z,5.38
2023-04-09T05:05:47.053Z,5.03
2023-04-09T05:08:14.000Z,5.30
2023-04-09T05:10:42.934Z,6.78
2023-04-09T05:13:09.909Z,6.40
2023-04-09T05:15:41.382Z,5.43
2023-04-09T05:18:08.499Z,5.25
2023-04-09T05:20:35.724Z,6.63
2023-04-09T05:23:02.664Z,5.63
2023-04-09T05:25:29.549Z,5.95
2023-04-09T05:27:56.519Z,7.47
2023-04-09T05:30:23.472Z,8.07
2023-04-09T05:32:50.415Z,5.95
2023-04-09T05:35:17.489Z,6.05
2023-04-09T05:37:44.363Z,5.30
2023-04-09T05:40:11.999Z,6.20
2023-04-09T05:42:38.911Z,7.00
2023-04-09T05:45:06.369Z,7.43
2023-04-09T05:47:33.268Z,10.98
2023-04-09T05:50:00.234Z,6.95
2023-04-09T05:52:27.316Z,5.85
2023-04-09T05:54:54.178Z,5.72
2023-04-09T05:57:21.099Z,8.75
2023-04-09T05:59:48.599Z,6.53
2023-04-09T06:02:15.812Z,8.25
2023-04-09T06:04:42.833Z,7.10
2023-04-09T06:07:09.785Z,7.15
2023-04-09T06:09:36.617Z,7.78
2023-04-09T06:12:04.124Z,7.18
2023-04-09T06:14:33.252Z,6.20
2023-04-09T06:17:00.708Z,5.80
2023-04-09T06:19:27.738Z,7.03
2023-04-09T06:21:55.673Z,6.93
2023-04-09T06:24:22.817Z,6.38
2023-04-09T06:26:49.807Z,8.07
2023-04-09T06:29:16.730Z,7.32
2023-04-09T06:31:43.727Z,7.07
2023-04-09T06:34:11.217Z,8.05
2023-04-09T06:36:40.530Z,7.93
2023-04-09T06:39:07.584Z,7.78
2023-04-09T06:41:34.534Z,11.80
2023-04-09T06:44:01.769Z,7.68
2023-04-09T06:48:55.770Z,6.78
2023-04-09T06:51:22.750Z,7.65
2023-04-09T06:53:50.029Z,7.43
2023-04-09T06:56:17.114Z,7.28
2023-04-09T06:58:44.758Z,6.80
2023-04-09T07:01:12.770Z,7.78
2023-04-09T07:03:39.807Z,9.77
2023-04-09T07:06:06.855Z,7.90
2023-04-09T07:08:33.791Z,8.13
2023-04-09T07:11:00.646Z,8.00
2023-04-09T07:15:55.452Z,8.98
2023-04-09T07:18:22.337Z,8.30
2023-04-09T07:20:49.261Z,8.40
2023-04-09T07:23:16.561Z,6.78
2023-04-09T07:25:43.622Z,8.30
2023-04-09T07:28:11.586Z,7.18
2023-04-09T07:30:39.866Z,9.75
2023-04-09T07:33:06.789Z,8.90
2023-04-09T07:35:34.874Z,7.60
2023-04-09T07:38:02.003Z,7.55
2023-04-09T07:40:28.876Z,7.78
2023-04-09T07:42:56.078Z,7.82
2023-04-09T07:45:22.951Z,7.82
2023-04-09T07:47:49.932Z,7.95
2023-04-09T07:50:16.964Z,9.35
2023-04-09T07:52:43.818Z,9.50
2023-04-09T07:55:10.850Z,9.98
2023-04-09T07:57:38.702Z,11.55
2023-04-09T08:00:06.883Z,7.70
2023-04-09T08:02:33.837Z,8.77
2023-04-09T08:05:00.953Z,9.93
2023-04-09T08:07:27.873Z,7.28
2023-04-09T08:09:55.131Z,7.82
2023-04-09T08:12:22.048Z,9.98
2023-04-09T08:14:48.919Z,16.00
2023-04-09T08:17:16.605Z,9.38
2023-04-09T08:19:43.544Z,8.20
2023-04-09T08:22:10.489Z,6.88
2023-04-09T08:24:38.784Z,14.90
2023-04-09T08:27:05.876Z,8.93
2023-04-09T08:29:34.509Z,12.38
2023-04-09T08:32:01.382Z,9.32
2023-04-09T08:34:28.637Z,10.27
2023-04-09T08:36:55.870Z,12.68
2023-04-09T08:39:22.714Z,10.20
2023-04-09T08:41:52.511Z,7.50
2023-04-09T08:44:19.357Z,7.05
2023-04-09T08:46:46.341Z,7.80
2023-04-09T08:49:13.264Z,13.93
2023-04-09T08:51:46.179Z,10.85
2023-04-09T08:54:16.661Z,8.85
2023-04-09T08:56:44.205Z,8.05
2023-04-09T08:59:11.363Z,9.88
2023-04-09T09:01:38.333Z,9.55
2023-04-09T09:04:07.778Z,7.13
2023-04-09T09:06:36.895Z,8.85
2023-04-09T09:09:14.904Z,14.15
2023-04-09T09:11:46.335Z,9.30
2023-04-09T09:14:20.796Z,8.43
2023-04-09T09:16:56.726Z,16.02
2023-04-09T09:19:26.870Z,16.15
2023-04-09T09:22:00.626Z,11.57
2023-04-09T09:24:29.303Z,12.40
2023-04-09T09:26:57.485Z,12.85
2023-04-09T09:29:25.233Z,12.35
2023-04-09T09:31:54.341Z,12.85
2023-04-09T09:34:23.133Z,14.60
2023-04-09T09:36:50.196Z,12.23
2023-04-09T09:39:18.047Z,11.38
2023-04-09T09:41:47.383Z,9.57
2023-04-09T09:44:32.224Z,12.20
2023-04-09T09:46:59.653Z,12.85
2023-04-09T09:49:26.562Z,17.23
2023-04-09T09:51:56.981Z,14.75
2023-04-09T09:54:25.738Z,12.50
2023-04-09T09:56:55.886Z,8.88
2023-04-09T09:59:32.354Z,12.10
2023-04-09T10:04:38.230Z,9.35
2023-04-09T10:07:07.149Z,12.25
2023-04-09T10:09:37.780Z,8.93
2023-04-09T10:12:07.632Z,10.00
2023-04-09T10:14:36.299Z,14.77
2023-04-09T10:17:04.424Z,11.00
2023-04-09T10:19:44.637Z,10.45
2023-04-09T10:22:15.507Z,12.88
2023-04-09T10:24:42.922Z,13.75
2023-04-09T10:27:12.528Z,10.60
2023-04-09T10:29:51.831Z,13.95
2023-04-09T10:32:25.212Z,14.02
2023-04-09T10:34:52.610Z,13.38
2023-04-09T10:37:24.464Z,12.25
2023-04-09T10:39:53.200Z,11.30
2023-04-09T10:42:29.346Z,20.35
2023-04-09T10:45:15.105Z,17.10
2023-04-09T10:47:43.374Z,16.27
2023-04-09T10:50:27.056Z,17.05
2023-04-09T10:52:56.609Z,20.52
2023-04-09T10:55:36.710Z,14.32
2023-04-09T10:58:11.333Z,20.27
2023-04-09T11:00:47.050Z,13.85
2023-04-09T11:03:30.449Z,11.50
2023-04-09T11:06:02.901Z,11.68
2023-04-09T11:08:33.858Z,15.45
2023-04-09T11:11:02.300Z,17.50
2023-04-09T11:13:31.652Z,17.58
2023-04-09T11:16:00.295Z,16.17
2023-04-09T11:18:29.038Z,15.02
2023-04-09T11:21:01.571Z,19.20
2023-04-09T11:23:29.069Z,22.02
2023-04-09T11:25:56.546Z,15.80
2023-04-09T11:28:24.529Z,17.48
2023-04-09T11:30:52.592Z,15.80
2023-04-09T11:33:20.574Z,12.98
2023-04-09T11:35:49.133Z,13.55
2023-04-09T11:38:16.704Z,16.55
2023-04-09T11:40:48.682Z,12.50
2023-04-09T11:43:17.220Z,14.93
2023-04-09T11:45:48.572Z,15.93
2023-04-09T11:48:22.013Z,13.70
2023-04-09T11:50:49.029Z,14.00
2023-04-09T11:53:17.540Z,12.23
2023-04-09T11:55:47.562Z,10.95
2023-04-09T11:58:15.047Z,10.30
2023-04-09T12:00:41.913Z,9.85
2023-04-09T12:03:12.172Z,8.85
2023-04-09T12:05:41.902Z,9.00
2023-04-09T12:08:10.912Z,8.70
2023-04-09T12:10:38.946Z,7.72
2023-04-09T12:13:10.949Z,13.65
2023-04-09T12:15:41.732Z,9.45
2023-04-09T12:18:10.001Z,13.50
2023-04-09T12:20:45.416Z,13.50
2023-04-09T12:23:13.498Z,12.30
2023-04-09T12:25:45.366Z,12.15
2023-04-09T12:28:18.912Z,12.18
2023-04-09T12:30:46.527Z,11.52
2023-04-09T12:33:13.450Z,10.45
2023-04-09T12:35:40.633Z,13.95
2023-04-09T12:38:07.588Z,11.23
2023-04-09T12:40:36.431Z,9.05
2023-04-09T12:43:03.437Z,15.13
2023-04-09T12:45:30.937Z,9.82
2023-04-09T12:47:58.599Z,9.30
2023-04-09T12:50:26.196Z,17.98
2023-04-09T12:52:53.335Z,17.10
2023-04-09T12:55:20.299Z,11.85
2023-04-09T12:57:49.980Z,18.83
2023-04-09T13:00:16.921Z,12.57
2023-04-09T13:02:43.980Z,15.30
2023-04-09T13:05:11.065Z,21.88
2023-04-09T13:07:37.970Z,14.88
2023-04-09T13:10:05.252Z,16.70
2023-04-09T13:12:32.325Z,13.13
2023-04-09T13:14:59.414Z,14.32
2023-04-09T13:17:26.600Z,19.65
2023-04-09T13:19:53.688Z,13.32
2023-04-09T13:22:20.829Z,16.05
2023-04-09T13:24:47.710Z,17.48
2023-04-09T13:27:14.930Z,12.88
2023-04-09T13:29:41.892Z,12.88
2023-04-09T13:32:10.858Z,11.05
2023-04-09T13:34:39.516Z,18.98
2023-04-09T13:37:06.785Z,12.45
2023-04-09T13:39:34.046Z,17.73
2023-04-09T13:42:07.407Z,15.27
2023-04-09T13:44:47.794Z,11.88
2023-04-09T13:47:16.376Z,11.70
2023-04-09T13:49:43.806Z,11.82
2023-04-09T13:52:10.883Z,16.05
2023-04-09T13:54:37.940Z,10.18
2023-04-09T13:57:04.793Z,8.77
2023-04-09T13:59:32.209Z,9.85
2023-04-09T14:01:59.310Z,10.02
2023-04-09T14:04:26.275Z,9.77
2023-04-09T14:06:53.233Z,11.07
2023-04-09T14:09:20.329Z,15.00
2023-04-09T14:11:47.422Z,10.95
2023-04-09T14:14:14.276Z,16.48
2023-04-09T14:16:41.366Z,15.70
2023-04-09T14:19:10.096Z,12.55
2023-04-09T14:21:37.084Z,15.68
2023-04-09T14:24:04.103Z,13.27
2023-04-09T14:26:30.996Z,12.57
2023-04-09T14:28:58.026Z,14.40
2023-04-09T14:31:24.946Z,13.23
2023-04-09T14:33:51.853Z,17.38
2023-04-09T14:36:19.290Z,11.93
2023-04-09T14:38:46.197Z,17.50
2023-04-09T14:41:13.145Z,13.27
2023-04-09T14:43:40.079Z,20.77
2023-04-09T14:46:12.172Z,12.80
2023-04-09T14:48:39.891Z,17.35
2023-04-09T14:51:09.036Z,16.73
2023-04-09T14:53:36.560Z,16.70
2023-04-09T14:56:03.893Z,15.48
2023-04-09T14:58:31.171Z,15.50
2023-04-09T15:00:58.159Z,13.07
2023-04-09T15:03:25.396Z,14.27
2023-04-09T15:05:52.526Z,13.05
2023-04-09T15:08:20.135Z,17.45
2023-04-09T15:10:46.982Z,15.07
2023-04-09T15:13:13.878Z,22.02
2023-04-09T15:15:41.716Z,18.95
2023-04-09T15:18:09.150Z,15.98
2023-04-09T15:20:42.415Z,14.05
2023-04-09T15:23:10.809Z,13.63
2023-04-09T15:25:37.864Z,16.10
2023-04-09T15:28:06.017Z,14.25
2023-04-09T15:30:33.215Z,14.52
2023-04-09T15:33:00.519Z,12.68
2023-04-09T15:35:29.461Z,14.27
2023-04-09T15:37:57.217Z,22.35
2023-04-09T15:40:24.166Z,13.43
2023-04-09T15:42:51.145Z,14.90
2023-04-09T15:45:18.200Z,12.23
2023-04-09T15:47:46.171Z,12.73
2023-04-09T15:50:14.671Z,11.55
2023-04-09T15:52:41.706Z,10.18
2023-04-09T15:55:09.242Z,15.18
2023-04-09T15:57:36.660Z,10.50
2023-04-09T16:00:03.701Z,10.25
2023-04-09T16:02:30.887Z,10.63
2023-04-09T16:04:57.884Z,8.60
2023-04-09T16:07:24.809Z,10.70
2023-04-09T16:09:51.771Z,9.55
2023-04-09T16:12:18.696Z,9.32
2023-04-09T16:14:45.791Z,6.82
2023-04-09T16:17:12.654Z,7.80
2023-04-09T16:19:39.551Z,8.82
2023-04-09T16:22:06.516Z,9.65
2023-04-09T16:24:33.488Z,7.80
2023-04-09T16:27:01.536Z,8.15
2023-04-09T16:29:28.582Z,7.93
2023-04-09T16:31:57.001Z,7.13
2023-04-09T16:34:23.991Z,7.97
2023-04-09T16:36:51.601Z,9.05
2023-04-09T16:39:21.489Z,7.72
2023-04-09T16:41:49.465Z,6.93
2023-04-09T16:44:16.413Z,9.45
2023-04-09T16:46:44.135Z,8.35
2023-04-09T16:49:11.303Z,6.95
2023-04-09T16:51:38.445Z,7.75
2023-04-09T16:54:05.613Z,7.47
2023-04-09T16:56:32.913Z,6.85
2023-04-09T16:59:00.085Z,6.53
2023-04-09T17:01:27.869Z,7.80
2023-04-09T17:03:56.078Z,6.80
2023-04-09T17:06:23.150Z,10.18
2023-04-09T17:08:49.997Z,6.72
2023-04-09T17:11:17.833Z,8.90
2023-04-09T17:13:45.020Z,8.43
2023-04-09T17:16:12.016Z,12.57
2023-04-09T17:18:39.131Z,7.63
2023-04-09T17:21:06.807Z,9.63
2023-04-09T17:23:33.855Z,7.32
2023-04-09T17:26:01.775Z,8.63
2023-04-09T17:28:28.750Z,7.28
2023-04-09T17:30:55.761Z,7.75
2023-04-09T17:33:22.711Z,9.43
2023-04-09T17:35:49.630Z,7.88
2023-04-09T17:38:21.252Z,8.45
2023-04-09T17:40:48.494Z,8.68
2023-04-09T17:43:15.714Z,9.18
2023-04-09T17:45:42.680Z,12.82
2023-04-09T17:48:09.638Z,9.13
2023-04-09T17:50:39.422Z,10.38
2023-04-09T17:53:06.332Z,14.10
2023-04-09T17:55:33.302Z,14.82
2023-04-09T17:58:00.387Z,9.20
2023-04-09T18:00:27.350Z,8.25
2023-04-09T18:02:54.495Z,9.32
2023-04-09T18:05:23.054Z,13.40
2023-04-09T18:07:51.776Z,10.55
2023-04-09T18:10:20.398Z,8.85
2023-04-09T18:12:47.229Z,7.82
2023-04-09T18:15:14.226Z,8.75
2023-04-09T18:17:41.154Z,8.90
2023-04-09T18:20:08.534Z,7.18
2023-04-09T18:22:35.443Z,10.50
2023-04-09T18:25:02.470Z,16.17
2023-04-09T18:27:29.355Z,17.25
2023-04-09T18:29:56.518Z,11.70
2023-04-09T18:32:23.774Z,15.38
2023-04-09T18:34:50.851Z,16.42
2023-04-09T18:37:17.883Z,19.42
2023-04-09T18:39:46.505Z,13.07
2023-04-09T18:42:13.669Z,11.93
2023-04-09T18:44:40.664Z,10.43
2023-04-09T18:47:09.420Z,10.60
2023-04-09T18:49:37.709Z,14.35
2023-04-09T18:52:09.297Z,10.80
2023-04-09T18:54:37.407Z,9.73
2023-04-09T18:57:04.884Z,17.08
2023-04-09T18:59:34.764Z,11.98
2023-04-09T19:02:05.884Z,11.80
2023-04-09T19:04:39.754Z,16.13
2023-04-09T19:07:07.634Z,11.50
2023-04-09T19:09:34.804Z,12.27
2023-04-09T19:12:02.015Z,12.05
2023-04-09T19:14:29.144Z,13.15
2023-04-09T19:16:57.127Z,18.95
2023-04-09T19:19:24.078Z,13.98
2023-04-09T19:21:51.327Z,12.98
2023-04-09T19:24:18.661Z,12.50
2023-04-09T19:26:45.549Z,14.88
2023-04-09T19:29:12.488Z,22.73
2023-04-09T19:31:39.555Z,22.55
2023-04-09T19:34:06.528Z,17.08
2023-04-09T19:36:34.135Z,14.50
2023-04-09T19:39:01.374Z,19.20
2023-04-09T19:41:28.378Z,16.35
2023-04-09T19:43:55.539Z,15.70
2023-04-09T19:46:22.440Z,14.57
2023-04-09T19:48:50.029Z,18.35
2023-04-09T19:51:20.380Z,20.00
2023-04-09T19:53:48.033Z,17.23
2023-04-09T19:56:15.752Z,16.17
2023-04-09T19:58:43.883Z,17.20
2023-04-09T20:01:11.108Z,16.70
2023-04-09T20:03:38.210Z,14.05
2023-04-09T20:06:10.280Z,15.70
2023-04-09T20:08:38.312Z,15.65
2023-04-09T20:11:05.501Z,17.42
2023-04-09T20:13:33.276Z,17.70
2023-04-09T20:16:00.733Z,17.75
2023-04-09T20:18:28.738Z,14.55
2023-04-09T20:20:55.701Z,15.75
2023-04-09T20:23:22.590Z,14.45
2023-04-09T20:25:54.450Z,15.48
2023-04-09T20:28:22.167Z,14.23
2023-04-09T20:30:49.422Z,11.75
2023-04-09T20:33:17.739Z,13.88
2023-04-09T20:35:45.231Z,17.85
2023-04-09T20:38:12.175Z,15.18
2023-04-09T20:40:39.100Z,12.10
2023-04-09T20:43:06.484Z,16.80
2023-04-09T20:45:33.890Z,13.85
2023-04-09T20:48:01.569Z,12.85
2023-04-09T20:50:28.994Z,21.00
2023-04-09T20:52:56.095Z,19.38
2023-04-09T20:55:23.581Z,16.90
2023-04-09T20:57:52.076Z,12.68
2023-04-09T21:00:19.072Z,12.85
2023-04-09T21:02:46.369Z,12.18
2023-04-09T21:05:22.813Z,15.07
2023-04-09T21:07:54.537Z,15.23
2023-04-09T21:10:21.645Z,18.55
2023-04-09T21:12:48.660Z,15.75
2023-04-09T21:15:16.179Z,16.85
2023-04-09T21:17:43.105Z,16.15
2023-04-09T21:20:10.857Z,19.08
2023-04-09T21:22:37.824Z,13.23
2023-04-09T21:25:05.354Z,13.27
2023-04-09T21:27:32.222Z,14.85
2023-04-09T21:29:59.773Z,14.52
2023-04-09T21:32:26.856Z,17.92
2023-04-09T21:34:54.074Z,14.85
2023-04-09T21:37:21.027Z,17.98
2023-04-09T21:39:48.952Z,16.63
2023-04-09T21:42:16.031Z,16.52
2023-04-09T21:44:42.988Z,15.98
2023-04-09T21:47:11.971Z,14.35
2023-04-09T21:49:40.578Z,20.13
2023-04-09T21:52:14.326Z,16.65
2023-04-09T21:54:42.287Z,14.73
2023-04-09T21:57:13.046Z,16.33
2023-04-09T21:59:41.328Z,14.02
2023-04-09T22:02:09.410Z,20.55
2023-04-09T22:04:37.226Z,15.40
2023-04-09T22:07:04.416Z,17.33
2023-04-09T22:09:31.873Z,15.70
2023-04-09T22:11:59.751Z,21.25
2023-04-09T22:14:29.616Z,12.70
2023-04-09T22:16:58.458Z,22.17
2023-04-09T22:19:26.280Z,15.20
2023-04-09T22:21:53.619Z,13.23
2023-04-09T22:24:27.004Z,12.40
2023-04-09T22:26:54.228Z,13.48
2023-04-09T22:29:21.133Z,12.52
2023-04-09T22:31:48.024Z,12.95
2023-04-09T22:34:21.502Z,20.98
2023-04-09T22:36:49.373Z,15.20
2023-04-09T22:39:16.421Z,21.08
2023-04-09T22:41:43.667Z,16.30
2023-04-09T22:44:11.105Z,12.10
2023-04-09T22:46:38.174Z,12.63
2023-04-09T22:49:06.257Z,19.65
2023-04-09T22:51:34.788Z,17.13
2023-04-09T22:54:02.561Z,15.70
2023-04-09T22:56:31.629Z,18.30
2023-04-09T22:58:58.775Z,13.30
2023-04-09T23:01:26.410Z,27.63
2023-04-09T23:03:53.437Z,25.27
2023-04-09T23:06:20.856Z,23.88
2023-04-09T23:08:47.873Z,25.02
2023-04-09T23:11:14.756Z,15.77
2023-04-09T23:13:41.788Z,18.25
2023-04-09T23:16:09.802Z,17.13
2023-04-09T23:18:37.188Z,23.17
2023-04-09T23:21:10.791Z,19.85
2023-04-09T23:23:38.958Z,22.05
2023-04-09T23:26:06.273Z,24.52
2023-04-09T23:28:33.255Z,15.88
2023-04-09T23:31:00.259Z,18.88
2023-04-09T23:33:27.585Z,29.08
2023-04-09T23:35:54.649Z,20.58
2023-04-09T23:38:21.716Z,27.23
2023-04-09T23:40:49.341Z,25.20
2023-04-09T23:43:16.664Z,18.75
2023-04-09T23:45:44.260Z,26.42
2023-04-09T23:48:11.998Z,24.88
2023-04-09T23:50:40.605Z,27.95
2023-04-09T23:53:08.006Z,19.42
2023-04-09T23:55:38.228Z,26.98
2023-04-09T23:58:05.731Z,26.60
